Time;durP1;ratioP1;P1;durP2;ratioP2;P2;SDS_P1;SDS_P2;PMS_P1;PMS_P2;Temp;Humidity;BMP_temperature;BMP_pressure;BME280_temperature;BME280_humidity;BME280_pressure;Samples;Min_cycle;Max_cycle;Signal;HPM_P1;HPM_P2
2023/04/07 00:00:26;;;;;;;15.65;4.57;;;8.60;99.90;;;;;;5110372;28;20149;-75
2023/04/07 00:02:52;;;;;;;19.83;4.70;;;8.60;99.90;;;;;;5110197;28;20457;-75
2023/04/07 00:05:18;;;;;;;17.20;5.28;;;8.50;99.90;;;;;;5091762;28;20059;-75
2023/04/07 00:07:43;;;;;;;18.23;5.07;;;8.50;99.90;;;;;;5098297;28;20062;-75
2023/04/07 00:10:09;;;;;;;24.90;4.82;;;8.50;99.90;;;;;;5109640;28;20106;-75
2023/04/07 00:12:35;;;;;;;22.05;5.00;;;8.50;99.90;;;;;;5095665;28;20478;-75
2023/04/07 00:15:01;;;;;;;21.50;5.05;;;8.50;99.90;;;;;;5096563;28;20016;-75
2023/04/07 00:17:26;;;;;;;23.27;4.53;;;8.50;99.90;;;;;;5098476;28;20032;-75
2023/04/07 00:19:52;;;;;;;17.25;4.53;;;8.50;99.90;;;;;;5096937;28;20031;-75
2023/04/07 00:22:18;;;;;;;18.38;4.10;;;8.40;99.90;;;;;;5098342;28;20021;-75
2023/04/07 00:24:43;;;;;;;22.80;3.97;;;8.40;99.90;;;;;;5104252;28;20020;-75
2023/04/07 00:27:09;;;;;;;27.48;3.97;;;8.40;99.90;;;;;;5103789;28;20470;-75
2023/04/07 00:29:35;;;;;;;18.75;3.90;;;8.40;99.90;;;;;;5097635;28;20008;-75
2023/04/07 00:32:00;;;;;;;24.42;4.30;;;8.30;99.90;;;;;;5092698;28;20448;-75
2023/04/07 00:34:26;;;;;;;18.58;3.75;;;8.30;99.90;;;;;;5104974;28;20027;-75
2023/04/07 00:36:52;;;;;;;23.90;3.92;;;8.20;99.90;;;;;;5102722;28;20031;-75
2023/04/07 00:39:18;;;;;;;26.67;3.85;;;8.20;99.90;;;;;;5093200;28;20088;-75
2023/04/07 00:41:44;;;;;;;23.67;4.63;;;8.20;99.90;;;;;;5106114;28;20015;-75
2023/04/07 00:44:10;;;;;;;21.00;4.15;;;8.20;99.90;;;;;;5112220;28;20020;-75
2023/04/07 00:46:36;;;;;;;22.38;4.35;;;8.10;99.90;;;;;;5115323;28;20135;-75
2023/04/07 00:49:02;;;;;;;26.88;3.83;;;8.10;99.90;;;;;;5114831;28;20096;-75
2023/04/07 00:51:28;;;;;;;22.42;4.18;;;8.10;99.90;;;;;;5098805;28;20024;-75
2023/04/07 00:53:54;;;;;;;24.30;4.65;;;8.00;99.90;;;;;;5103679;28;20016;-75
2023/04/07 00:56:19;;;;;;;19.20;3.58;;;8.00;99.90;;;;;;5091896;28;20039;-75
2023/04/07 00:58:45;;;;;;;21.65;4.10;;;8.00;99.90;;;;;;5111266;28;20020;-75
2023/04/07 01:01:29;;;;;;;19.17;3.55;;;8.00;99.90;;;;;;5108561;28;20031;-75
2023/04/07 01:04:06;;;;;;;30.63;4.82;;;7.90;99.90;;;;;;5113286;28;20382;-75
2023/04/07 01:06:36;;;;;;;23.10;4.38;;;7.90;99.90;;;;;;5111266;28;20024;-75
2023/04/07 01:09:10;;;;;;;20.77;4.20;;;7.90;99.90;;;;;;5112791;28;20472;-75
2023/04/07 01:11:48;;;;;;;23.55;4.13;;;7.90;99.90;;;;;;5109645;28;20031;-75
2023/04/07 01:14:17;;;;;;;21.35;4.78;;;7.80;99.90;;;;;;5114051;28;20023;-75
2023/04/07 01:16:47;;;;;;;27.70;4.68;;;7.80;99.90;;;;;;5114209;28;20036;-75
2023/04/07 01:19:15;;;;;;;23.88;4.55;;;7.80;99.90;;;;;;5114323;28;20035;-75
2023/04/07 01:21:43;;;;;;;21.85;5.03;;;7.80;99.90;;;;;;5102891;28;20647;-75
2023/04/07 01:24:50;;;;;;;22.02;4.85;;;7.80;99.90;;;;;;5112171;28;20026;-75
2023/04/07 01:27:51;;;;;;;24.83;5.22;;;7.80;99.90;;;;;;5089754;28;20474;-75
2023/04/07 01:30:19;;;;;;;24.48;4.85;;;7.80;99.90;;;;;;4994126;28;20121;-75
2023/04/07 01:32:50;;;;;;;28.30;5.72;;;7.80;99.90;;;;;;5010720;28;20033;-75
2023/04/07 01:35:17;;;;;;;27.75;5.57;;;7.80;99.90;;;;;;4997891;28;20036;-75
2023/04/07 01:37:47;;;;;;;25.77;4.85;;;7.80;99.90;;;;;;5002842;28;20430;-75
2023/04/07 01:40:14;;;;;;;24.25;4.57;;;7.80;99.90;;;;;;5005921;28;20038;-75
2023/04/07 01:42:41;;;;;;;20.23;4.75;;;7.80;99.90;;;;;;5002473;28;20057;-75
2023/04/07 01:45:08;;;;;;;24.08;5.50;;;7.80;99.90;;;;;;5006182;28;20453;-75
2023/04/07 01:47:36;;;;;;;16.02;4.38;;;7.80;99.90;;;;;;5010594;28;20050;-75
2023/04/07 01:50:04;;;;;;;19.58;4.47;;;7.80;99.90;;;;;;4998581;28;20180;-75
2023/04/07 01:52:32;;;;;;;23.08;4.60;;;7.80;99.90;;;;;;5001263;28;20081;-75
2023/04/07 01:54:57;;;;;;;27.45;5.45;;;7.80;99.90;;;;;;4997070;28;20562;-75
2023/04/07 01:57:23;;;;;;;23.85;4.53;;;7.80;99.90;;;;;;5010818;28;20034;-75
2023/04/07 01:59:49;;;;;;;17.80;4.43;;;7.80;99.90;;;;;;4992779;28;20030;-75
2023/04/07 02:02:14;;;;;;;25.70;4.72;;;7.80;99.90;;;;;;5010403;28;20439;-75
2023/04/07 02:04:57;;;;;;;20.52;5.28;;;7.80;99.90;;;;;;5077328;28;20031;-75
2023/04/07 02:07:50;;;;;;;24.50;5.00;;;7.80;99.90;;;;;;5113000;28;20098;-75
2023/04/07 02:10:18;;;;;;;21.92;5.07;;;7.80;99.90;;;;;;5104076;28;20023;-75
2023/04/07 02:12:46;;;;;;;20.00;4.93;;;7.80;99.90;;;;;;5101276;28;20039;-75
2023/04/07 02:15:12;;;;;;;19.92;4.80;;;7.80;99.90;;;;;;5103534;28;20103;-75
2023/04/07 02:17:41;;;;;;;28.83;5.32;;;7.80;99.90;;;;;;5097664;28;20094;-75
2023/04/07 02:20:11;;;;;;;21.88;4.53;;;7.80;99.90;;;;;;5113131;28;20089;-75
2023/04/07 02:22:38;;;;;;;22.77;5.00;;;7.80;99.90;;;;;;5112831;28;20051;-75
2023/04/07 02:25:25;;;;;;;24.60;5.18;;;7.80;99.90;;;;;;5112968;28;20023;-75
2023/04/07 02:27:51;;;;;;;22.75;4.45;;;7.80;99.90;;;;;;5086911;28;20052;-75
2023/04/07 02:30:17;;;;;;;19.50;4.35;;;7.70;99.90;;;;;;5093638;28;20039;-75
2023/04/07 02:32:42;;;;;;;14.70;4.65;;;7.70;99.90;;;;;;5111661;28;20024;-75
2023/04/07 02:35:08;;;;;;;18.30;4.25;;;7.70;99.90;;;;;;5112386;28;20027;-75
2023/04/07 02:37:34;;;;;;;25.77;4.45;;;7.70;99.90;;;;;;5113210;28;20416;-75
2023/04/07 02:40:00;;;;;;;21.58;4.55;;;7.70;99.90;;;;;;5112613;28;20085;-75
2023/04/07 02:42:25;;;;;;;21.35;4.68;;;7.70;99.90;;;;;;5112726;28;20054;-75
2023/04/07 02:44:51;;;;;;;22.98;4.35;;;7.70;99.90;;;;;;5098735;28;20028;-75
2023/04/07 02:47:16;;;;;;;21.10;4.65;;;7.70;99.90;;;;;;5098893;28;20051;-75
2023/04/07 02:49:42;;;;;;;23.60;4.75;;;7.80;99.90;;;;;;5112412;28;20031;-75
2023/04/07 02:52:08;;;;;;;20.65;4.45;;;7.80;99.90;;;;;;5100584;28;20016;-75
2023/04/07 02:54:33;;;;;;;16.20;4.63;;;7.80;99.90;;;;;;5111641;28;20016;-75
2023/04/07 02:56:59;;;;;;;20.88;5.13;;;7.80;99.90;;;;;;5110698;28;20035;-75
2023/04/07 02:59:25;;;;;;;20.85;4.55;;;7.90;99.90;;;;;;5104744;28;20052;-75
2023/04/07 03:01:51;;;;;;;18.85;4.57;;;7.90;99.90;;;;;;5105516;28;20050;-75
2023/04/07 03:04:16;;;;;;;21.40;4.47;;;7.90;99.90;;;;;;5112101;28;20027;-75
2023/04/07 03:06:42;;;;;;;20.27;5.15;;;8.00;99.90;;;;;;5112209;28;20023;-75
2023/04/07 03:09:07;;;;;;;20.40;4.93;;;8.00;99.90;;;;;;5082066;28;20501;-75
2023/04/07 03:11:33;;;;;;;20.05;4.72;;;8.00;99.90;;;;;;5109396;28;20015;-75
2023/04/07 03:13:59;;;;;;;20.50;4.50;;;8.00;99.90;;;;;;5109467;28;20011;-75
2023/04/07 03:16:24;;;;;;;23.63;4.78;;;8.10;99.90;;;;;;5108019;28;20131;-75
2023/04/07 03:18:50;;;;;;;19.45;4.63;;;8.10;99.90;;;;;;5102990;28;20091;-75
2023/04/07 03:21:15;;;;;;;21.98;4.85;;;8.10;99.90;;;;;;5093020;28;20020;-75
2023/04/07 03:23:41;;;;;;;16.80;4.10;;;8.20;99.90;;;;;;5111753;28;20027;-75
2023/04/07 03:26:07;;;;;;;16.88;4.95;;;8.20;99.90;;;;;;5111655;28;20020;-75
2023/04/07 03:28:33;;;;;;;22.17;4.80;;;8.20;99.90;;;;;;5111611;28;20042;-76
2023/04/07 03:30:59;;;;;;;13.07;3.95;;;8.20;99.90;;;;;;5110347;28;20099;-76
2023/04/07 03:33:24;;;;;;;16.75;4.57;;;8.20;99.90;;;;;;5092214;28;20482;-75
2023/04/07 03:35:50;;;;;;;20.92;4.05;;;8.30;99.90;;;;;;5104198;28;20020;-75
2023/04/07 03:38:15;;;;;;;16.15;4.10;;;8.30;99.90;;;;;;5105060;28;20027;-75
2023/04/07 03:40:41;;;;;;;18.63;3.58;;;8.30;99.90;;;;;;5091667;28;20455;-75
2023/04/07 03:43:11;;;;;;;16.67;4.53;;;8.30;99.90;;;;;;5104914;28;20465;-75
2023/04/07 03:45:37;;;;;;;15.80;4.10;;;8.30;99.90;;;;;;5099971;28;20389;-75
2023/04/07 03:48:03;;;;;;;19.85;4.20;;;8.40;99.90;;;;;;5110970;28;20051;-75
2023/04/07 03:50:28;;;;;;;13.23;4.03;;;8.40;99.90;;;;;;5103453;28;20024;-75
2023/04/07 03:52:54;;;;;;;18.20;3.83;;;8.40;99.90;;;;;;5104892;28;20031;-75
2023/04/07 03:55:20;;;;;;;14.57;4.18;;;8.40;99.90;;;;;;5099288;28;20512;-75
2023/04/07 03:57:45;;;;;;;15.73;4.65;;;8.40;99.90;;;;;;5096545;28;20016;-75
2023/04/07 04:00:12;;;;;;;19.23;4.90;;;8.40;99.90;;;;;;5091775;28;20073;-75
2023/04/07 04:02:37;;;;;;;13.68;3.75;;;8.40;99.90;;;;;;5107349;28;20398;-75
2023/04/07 04:05:03;;;;;;;11.73;3.80;;;8.40;99.90;;;;;;5111512;28;20035;-75
2023/04/07 04:07:30;;;;;;;15.77;4.65;;;8.40;99.90;;;;;;5091866;28;20027;-75
2023/04/07 04:09:55;;;;;;;21.85;4.80;;;8.40;99.90;;;;;;5090947;28;20398;-75
2023/04/07 04:12:21;;;;;;;17.08;4.43;;;8.40;99.90;;;;;;5088457;28;20019;-75
2023/04/07 04:14:46;;;;;;;18.08;4.55;;;8.40;99.90;;;;;;5093804;28;20013;-75
2023/04/07 04:17:12;;;;;;;16.58;4.25;;;8.40;99.90;;;;;;5105346;28;20431;-75
2023/04/07 04:19:37;;;;;;;11.73;4.13;;;8.40;99.90;;;;;;5111257;28;20028;-75
2023/04/07 04:22:03;;;;;;;16.67;4.22;;;8.40;99.90;;;;;;5110589;28;20053;-75
2023/04/07 04:24:29;;;;;;;12.23;3.75;;;8.40;99.90;;;;;;5098616;28;20016;-75
2023/04/07 04:26:55;;;;;;;14.02;4.10;;;8.40;99.90;;;;;;5110916;28;20033;-75
2023/04/07 04:29:21;;;;;;;9.57;3.70;;;8.40;99.90;;;;;;5111405;28;20015;-75
2023/04/07 04:31:46;;;;;;;14.10;4.00;;;8.40;99.90;;;;;;5112352;28;20023;-75
2023/04/07 04:34:12;;;;;;;13.77;3.53;;;8.40;99.90;;;;;;5089360;28;20060;-75
2023/04/07 04:36:39;;;;;;;15.65;3.38;;;8.40;99.90;;;;;;5108623;28;20024;-75
2023/04/07 04:39:05;;;;;;;11.68;2.88;;;8.50;99.90;;;;;;5094918;28;20062;-75
2023/04/07 04:41:31;;;;;;;16.40;3.22;;;8.40;99.90;;;;;;5108319;28;20023;-75
2023/04/07 04:43:56;;;;;;;16.67;2.90;;;8.50;99.90;;;;;;5094600;28;20505;-75
2023/04/07 04:46:22;;;;;;;15.73;2.97;;;8.50;99.90;;;;;;5108323;28;20494;-75
2023/04/07 04:48:47;;;;;;;18.85;3.22;;;8.40;99.90;;;;;;5114815;28;20615;-75
2023/04/07 04:51:13;;;;;;;16.40;2.65;;;8.40;99.90;;;;;;5114704;28;20028;-75
2023/04/07 04:53:38;;;;;;;13.23;2.45;;;8.40;99.90;;;;;;5107149;28;20024;-75
2023/04/07 04:56:04;;;;;;;16.33;3.38;;;8.50;99.90;;;;;;5108092;28;20447;-75
2023/04/07 04:58:30;;;;;;;17.27;2.60;;;8.50;99.90;;;;;;5114719;28;20128;-75
2023/04/07 05:00:57;;;;;;;19.35;3.40;;;8.50;99.90;;;;;;5100491;28;20459;-75
2023/04/07 05:03:25;;;;;;;13.73;2.63;;;8.50;99.90;;;;;;5107437;28;20093;-75
2023/04/07 05:05:50;;;;;;;14.20;2.78;;;8.50;99.90;;;;;;5107138;28;20170;-75
2023/04/07 05:08:16;;;;;;;14.45;2.85;;;8.50;99.90;;;;;;5106765;28;20490;-75
2023/04/07 05:10:41;;;;;;;7.97;2.67;;;8.50;99.90;;;;;;5107802;28;20031;-75
2023/04/07 05:13:07;;;;;;;15.20;2.72;;;8.50;99.90;;;;;;5114311;28;20435;-75
2023/04/07 05:15:32;;;;;;;13.43;2.67;;;8.50;99.90;;;;;;5114022;28;20042;-75
2023/04/07 05:17:58;;;;;;;15.73;3.00;;;8.50;99.90;;;;;;5114302;28;20028;-75
2023/04/07 05:20:24;;;;;;;9.52;2.88;;;8.50;99.90;;;;;;5100633;28;20024;-75
2023/04/07 05:22:49;;;;;;;11.48;2.58;;;8.50;99.90;;;;;;5114157;28;20039;-75
2023/04/07 05:25:15;;;;;;;13.40;3.03;;;8.50;99.90;;;;;;5113811;28;20016;-75
2023/04/07 05:27:41;;;;;;;15.93;2.83;;;8.50;99.90;;;;;;5113902;28;20026;-75
2023/04/07 05:30:07;;;;;;;14.13;2.85;;;8.50;99.90;;;;;;5113598;28;20031;-75
2023/04/07 05:32:32;;;;;;;16.50;2.80;;;8.50;99.90;;;;;;5106010;28;20021;-75
2023/04/07 05:34:58;;;;;;;13.25;2.72;;;8.50;99.90;;;;;;5113354;28;20077;-74
2023/04/07 05:37:24;;;;;;;9.63;2.55;;;8.50;99.90;;;;;;5106335;28;20031;-74
2023/04/07 05:39:50;;;;;;;13.07;3.05;;;8.50;99.90;;;;;;5113337;28;20120;-74
2023/04/07 05:42:15;;;;;;;12.60;2.85;;;8.50;99.90;;;;;;5113730;28;20068;-74
2023/04/07 05:44:41;;;;;;;12.10;2.20;;;8.50;99.90;;;;;;5112780;28;20042;-74
2023/04/07 05:47:07;;;;;;;12.95;2.45;;;8.50;99.90;;;;;;5106369;28;20123;-74
2023/04/07 05:49:36;;;;;;;13.05;2.75;;;8.50;99.90;;;;;;5111381;28;20031;-74
2023/04/07 05:52:02;;;;;;;12.18;2.38;;;8.50;99.90;;;;;;5083587;28;20020;-74
2023/04/07 05:54:28;;;;;;;12.20;2.35;;;8.50;99.90;;;;;;5113125;28;20030;-74
2023/04/07 05:56:53;;;;;;;12.60;2.30;;;8.50;99.90;;;;;;5095044;28;20050;-74
2023/04/07 05:59:19;;;;;;;11.00;2.35;;;8.60;99.90;;;;;;5113055;28;20082;-74
2023/04/07 06:01:45;;;;;;;15.85;2.92;;;8.60;99.90;;;;;;5111831;28;20023;-74
2023/04/07 06:04:10;;;;;;;11.98;2.60;;;8.60;99.90;;;;;;5110186;28;20085;-74
2023/04/07 06:06:37;;;;;;;17.88;2.47;;;8.60;99.90;;;;;;5087201;28;20525;-74
2023/04/07 06:09:02;;;;;;;11.05;2.30;;;8.60;99.90;;;;;;5106209;28;20482;-74
2023/04/07 06:11:28;;;;;;;13.40;2.38;;;8.60;99.90;;;;;;5093260;28;20036;-74
2023/04/07 06:13:53;;;;;;;15.38;2.60;;;8.70;99.90;;;;;;5106449;28;20026;-74
2023/04/07 06:16:19;;;;;;;17.30;2.22;;;8.70;99.90;;;;;;5101843;28;20046;-74
2023/04/07 06:18:45;;;;;;;16.88;2.35;;;8.70;99.90;;;;;;5108356;28;20031;-74
2023/04/07 06:21:10;;;;;;;13.95;2.55;;;8.70;99.90;;;;;;5099468;28;20020;-75
2023/04/07 06:23:36;;;;;;;14.48;2.97;;;8.70;99.90;;;;;;5113049;28;20020;-75
2023/04/07 06:26:01;;;;;;;12.35;2.22;;;8.70;99.90;;;;;;5103283;28;20024;-75
2023/04/07 06:28:27;;;;;;;15.02;2.33;;;8.70;99.90;;;;;;5104037;28;20028;-75
2023/04/07 06:30:52;;;;;;;13.88;2.20;;;8.70;99.90;;;;;;5110805;28;20022;-75
2023/04/07 06:33:20;;;;;;;16.67;2.47;;;8.70;99.90;;;;;;5110021;28;20028;-75
2023/04/07 06:35:46;;;;;;;14.48;2.30;;;8.70;99.90;;;;;;5103570;28;20426;-75
2023/04/07 06:38:12;;;;;;;18.58;2.30;;;8.80;99.90;;;;;;5112410;28;20103;-75
2023/04/07 06:40:38;;;;;;;19.83;2.28;;;8.80;99.90;;;;;;5090520;28;20024;-75
2023/04/07 06:43:03;;;;;;;12.50;2.50;;;8.80;99.90;;;;;;5105307;28;20039;-75
2023/04/07 06:45:29;;;;;;;17.08;2.40;;;8.80;99.90;;;;;;5110102;28;20015;-74
2023/04/07 06:47:54;;;;;;;20.48;2.83;;;8.80;99.90;;;;;;5099723;28;20048;-75
2023/04/07 06:50:21;;;;;;;18.95;2.55;;;8.80;99.90;;;;;;5112964;28;20031;-75
2023/04/07 06:52:46;;;;;;;17.52;2.47;;;8.80;99.90;;;;;;5109934;28;20039;-75
2023/04/07 06:55:12;;;;;;;12.55;2.33;;;8.80;99.90;;;;;;5110112;28;20383;-75
2023/04/07 06:57:38;;;;;;;9.20;1.88;;;8.80;99.90;;;;;;5112638;28;20038;-74
2023/04/07 07:00:06;;;;;;;10.90;2.00;;;8.80;99.90;;;;;;5109410;28;20031;-74
2023/04/07 07:02:32;;;;;;;12.30;2.40;;;8.70;99.90;;;;;;5111824;28;20374;-74
2023/04/07 07:04:58;;;;;;;12.25;2.00;;;8.80;99.90;;;;;;5109734;28;20500;-74
2023/04/07 07:07:24;;;;;;;12.18;2.13;;;8.80;99.90;;;;;;5111676;28;20113;-74
2023/04/07 07:09:50;;;;;;;17.90;2.50;;;8.80;99.90;;;;;;5110308;28;20011;-74
2023/04/07 07:12:16;;;;;;;13.70;2.17;;;8.80;99.90;;;;;;5111196;28;20024;-74
2023/04/07 07:14:42;;;;;;;17.02;2.70;;;8.80;99.90;;;;;;5093559;28;20088;-74
2023/04/07 07:17:08;;;;;;;14.80;2.22;;;8.80;99.90;;;;;;5092633;28;20473;-74
2023/04/07 07:19:34;;;;;;;19.73;2.45;;;8.80;99.90;;;;;;5098336;28;20015;-74
2023/04/07 07:22:02;;;;;;;15.98;2.50;;;8.80;99.90;;;;;;5112401;28;20020;-74
2023/04/07 07:24:29;;;;;;;12.80;2.55;;;8.80;99.90;;;;;;5093023;28;20027;-74
2023/04/07 07:26:56;;;;;;;15.80;2.72;;;8.80;99.90;;;;;;5105712;28;20442;-74
2023/04/07 07:29:21;;;;;;;12.98;2.67;;;8.80;99.90;;;;;;5111704;28;20467;-74
2023/04/07 07:31:47;;;;;;;14.40;2.38;;;8.80;99.90;;;;;;5103947;28;20103;-74
2023/04/07 07:34:13;;;;;;;17.98;2.60;;;8.80;99.90;;;;;;5102471;28;20024;-74
2023/04/07 07:36:38;;;;;;;10.73;2.47;;;8.90;99.90;;;;;;5110330;28;20039;-74
2023/04/07 07:39:05;;;;;;;14.30;2.40;;;8.90;99.90;;;;;;5102275;28;20375;-74
2023/04/07 07:41:30;;;;;;;12.02;2.33;;;8.90;99.90;;;;;;5110572;28;20068;-73
2023/04/07 07:43:56;;;;;;;9.02;2.47;;;8.90;99.90;;;;;;5109262;28;20374;-73
2023/04/07 07:46:24;;;;;;;12.70;2.55;;;8.90;99.90;;;;;;5089585;28;20048;-73
2023/04/07 07:48:50;;;;;;;10.60;2.33;;;8.90;99.90;;;;;;5098866;28;20024;-73
2023/04/07 07:51:17;;;;;;;13.15;2.80;;;8.90;99.90;;;;;;5097749;28;20413;-73
2023/04/07 07:53:43;;;;;;;18.02;3.00;;;8.90;99.90;;;;;;5103713;28;20387;-73
2023/04/07 07:56:09;;;;;;;9.57;2.20;;;9.00;99.90;;;;;;5106010;28;20034;-73
2023/04/07 07:58:34;;;;;;;17.55;2.90;;;9.00;99.90;;;;;;5111642;28;20019;-73
2023/04/07 08:01:00;;;;;;;13.95;2.83;;;9.10;99.90;;;;;;5093207;28;20028;-75
2023/04/07 08:03:25;;;;;;;9.77;2.28;;;9.10;99.90;;;;;;5111590;28;20024;-73
2023/04/07 08:05:51;;;;;;;16.40;2.60;;;9.10;99.90;;;;;;5112935;28;20019;-74
2023/04/07 08:08:17;;;;;;;20.13;2.78;;;9.20;99.90;;;;;;5101786;28;20066;-73
2023/04/07 08:10:42;;;;;;;13.77;2.45;;;9.20;99.90;;;;;;5114498;28;20612;-73
2023/04/07 08:13:08;;;;;;;15.25;2.40;;;9.30;99.90;;;;;;5115075;28;20042;-73
2023/04/07 08:15:34;;;;;;;13.73;2.45;;;9.30;99.90;;;;;;5114520;28;20076;-73
2023/04/07 08:18:01;;;;;;;12.48;2.88;;;9.30;99.90;;;;;;5101434;28;20098;-73
2023/04/07 08:20:27;;;;;;;18.25;2.85;;;9.40;99.90;;;;;;5115352;28;20085;-74
2023/04/07 08:22:53;;;;;;;13.48;2.95;;;9.40;99.90;;;;;;5097218;28;20019;-73
2023/04/07 08:25:19;;;;;;;11.27;2.72;;;9.40;99.90;;;;;;5114672;28;20493;-73
2023/04/07 08:27:45;;;;;;;12.52;2.60;;;9.40;99.90;;;;;;5115637;28;20035;-74
2023/04/07 08:30:11;;;;;;;16.40;2.70;;;9.40;99.90;;;;;;5101628;28;20016;-73
2023/04/07 08:32:42;;;;;;;19.95;2.85;;;9.40;99.90;;;;;;5114652;28;20014;-73
2023/04/07 08:35:08;;;;;;;16.25;2.42;;;9.50;99.90;;;;;;5114758;28;20024;-72
2023/04/07 08:37:34;;;;;;;12.38;2.13;;;9.50;99.90;;;;;;5106948;28;20055;-74
2023/04/07 08:40:01;;;;;;;17.75;3.03;;;9.40;99.90;;;;;;5108702;28;20031;-73
2023/04/07 08:42:30;;;;;;;10.77;2.30;;;9.40;99.90;;;;;;5105850;28;20048;-74
2023/04/07 08:45:00;;;;;;;20.02;2.60;;;9.40;99.90;;;;;;5079503;28;20470;-74
2023/04/07 08:47:29;;;;;;;16.23;2.60;;;9.50;99.90;;;;;;5114908;28;20055;-74
2023/04/07 08:49:59;;;;;;;12.27;2.20;;;9.60;99.90;;;;;;5114596;28;20012;-73
2023/04/07 08:52:38;;;;;;;13.60;2.50;;;9.60;99.90;;;;;;5114915;28;20024;-74
2023/04/07 08:55:05;;;;;;;19.65;2.92;;;9.60;99.90;;;;;;5115106;28;20039;-74
2023/04/07 08:57:32;;;;;;;17.52;2.60;;;9.60;99.90;;;;;;5112331;28;20192;-73
2023/04/07 09:00:04;;;;;;;13.95;2.40;;;9.50;99.90;;;;;;5114361;28;20028;-74
2023/04/07 09:02:32;;;;;;;13.68;2.55;;;9.50;99.90;;;;;;5099861;28;20036;-74
2023/04/07 09:04:57;;;;;;;17.63;2.80;;;9.50;99.90;;;;;;5114079;28;20125;-74
2023/04/07 09:07:23;;;;;;;18.73;2.33;;;9.60;99.90;;;;;;5114000;28;20413;-74
2023/04/07 09:09:49;;;;;;;16.15;2.22;;;9.60;99.90;;;;;;5083138;28;20038;-73
2023/04/07 09:12:15;;;;;;;11.98;2.30;;;9.70;99.90;;;;;;5114979;28;20023;-73
2023/04/07 09:14:41;;;;;;;16.58;2.47;;;9.70;99.90;;;;;;5093610;28;20013;-73
2023/04/07 09:17:06;;;;;;;15.32;2.20;;;9.80;99.90;;;;;;5105181;28;20449;-73
2023/04/07 09:19:32;;;;;;;17.17;2.67;;;9.80;99.90;;;;;;5112714;28;20023;-73
2023/04/07 09:21:58;;;;;;;14.52;2.17;;;9.80;99.90;;;;;;5078365;28;20038;-73
2023/04/07 09:24:30;;;;;;;8.73;1.70;;;9.80;99.90;;;;;;5099764;28;20102;-73
2023/04/07 09:27:12;;;;;;;11.48;1.77;;;9.80;99.90;;;;;;5091397;28;20103;-73
2023/04/07 09:29:39;;;;;;;13.20;1.98;;;9.80;99.90;;;;;;5102986;28;20018;-73
2023/04/07 09:32:05;;;;;;;13.85;2.42;;;9.70;99.90;;;;;;5112571;28;20030;-74
2023/04/07 09:34:33;;;;;;;19.08;2.75;;;9.80;99.90;;;;;;5105060;28;20475;-74
2023/04/07 09:37:00;;;;;;;16.85;2.47;;;9.80;99.90;;;;;;5095948;28;20562;-74
2023/04/07 09:39:26;;;;;;;16.33;2.25;;;9.90;99.90;;;;;;5085166;28;20058;-74
2023/04/07 09:41:55;;;;;;;14.95;2.60;;;9.90;99.90;;;;;;5108953;28;20425;-74
2023/04/07 09:44:21;;;;;;;14.45;2.25;;;10.00;99.90;;;;;;5092376;28;20031;-74
2023/04/07 09:46:50;;;;;;;12.38;2.00;;;10.00;99.90;;;;;;5096776;28;20512;-74
2023/04/07 09:49:16;;;;;;;12.07;2.30;;;10.10;99.90;;;;;;5112900;28;20103;-74
2023/04/07 09:51:59;;;;;;;11.38;2.53;;;10.00;99.90;;;;;;5094444;28;20096;-74
2023/04/07 09:54:38;;;;;;;11.82;2.40;;;10.10;99.90;;;;;;5092276;28;20020;-75
2023/04/07 09:57:07;;;;;;;16.75;2.63;;;10.20;99.90;;;;;;5101360;28;20024;-75
2023/04/07 09:59:34;;;;;;;13.60;2.42;;;10.10;99.90;;;;;;5112268;28;20681;-74
2023/04/07 10:02:00;;;;;;;9.75;2.10;;;10.10;99.90;;;;;;5112192;28;20117;-74
2023/04/07 10:04:27;;;;;;;12.68;2.58;;;10.10;99.90;;;;;;5110457;28;20101;-74
2023/04/07 10:06:54;;;;;;;14.52;2.70;;;10.10;99.90;;;;;;5103610;28;20020;-74
2023/04/07 10:09:25;;;;;;;12.85;2.10;;;10.00;99.90;;;;;;5093987;28;20115;-74
2023/04/07 10:11:52;;;;;;;18.35;2.75;;;10.00;99.90;;;;;;5112387;28;20043;-74
2023/04/07 10:14:20;;;;;;;17.40;2.85;;;10.00;99.90;;;;;;5093205;28;20061;-74
2023/04/07 10:16:48;;;;;;;11.10;2.47;;;10.00;99.90;;;;;;5112523;28;20023;-75
2023/04/07 10:19:15;;;;;;;12.10;2.28;;;10.00;99.90;;;;;;5111801;28;20434;-74
2023/04/07 10:21:42;;;;;;;13.65;2.80;;;10.00;99.90;;;;;;5094898;28;20470;-75
2023/04/07 10:24:30;;;;;;;18.17;2.28;;;10.10;99.90;;;;;;5113355;28;20019;-75
2023/04/07 10:27:01;;;;;;;16.58;2.50;;;10.10;99.90;;;;;;5112097;28;20028;-74
2023/04/07 10:29:30;;;;;;;17.63;2.30;;;10.10;99.90;;;;;;5111181;28;20022;-75
2023/04/07 10:31:58;;;;;;;14.95;2.63;;;10.10;99.90;;;;;;5111503;28;20024;-74
2023/04/07 10:34:49;;;;;;;11.13;2.20;;;10.10;99.90;;;;;;5093562;28;20023;-74
2023/04/07 10:37:18;;;;;;;14.35;1.88;;;10.10;99.90;;;;;;5111032;28;20073;-75
2023/04/07 10:39:44;;;;;;;12.70;2.13;;;10.00;99.90;;;;;;5111837;28;20024;-74
2023/04/07 10:42:49;;;;;;;18.15;2.50;;;9.90;99.90;;;;;;5086775;28;20028;-74
2023/04/07 10:45:15;;;;;;;13.40;2.40;;;9.90;99.90;;;;;;5109881;28;20405;-74
2023/04/07 10:48:02;;;;;;;14.98;2.47;;;9.90;99.90;;;;;;5111375;28;20054;-74
2023/04/07 10:50:28;;;;;;;13.27;2.28;;;9.90;99.90;;;;;;5111452;28;20027;-74
2023/04/07 10:53:11;;;;;;;12.23;2.22;;;9.90;99.90;;;;;;5097083;28;20024;-74
2023/04/07 10:55:44;;;;;;;15.27;2.70;;;9.90;99.90;;;;;;5102061;28;20027;-74
2023/04/07 10:58:22;;;;;;;15.73;2.33;;;9.90;99.90;;;;;;5094408;28;20370;-75
2023/04/07 11:01:06;;;;;;;11.93;2.35;;;9.90;99.90;;;;;;5091744;28;20081;-74
2023/04/07 11:03:40;;;;;;;16.88;2.40;;;9.90;99.90;;;;;;5099841;28;20056;-74
2023/04/07 11:06:13;;;;;;;14.47;2.37;;;9.90;99.90;;;;;;5096458;28;20095;-74
2023/04/07 11:08:41;;;;;;;15.45;2.17;;;9.90;99.90;;;;;;5111436;28;20339;-74
2023/04/07 11:11:08;;;;;;;19.30;2.72;;;9.90;99.90;;;;;;5097310;28;20049;-74
2023/04/07 11:13:46;;;;;;;17.27;2.13;;;9.90;99.90;;;;;;5111561;28;20031;-75
2023/04/07 11:16:12;;;;;;;12.90;2.47;;;10.00;99.90;;;;;;5110803;28;20114;-74
2023/04/07 11:18:39;;;;;;;17.65;2.63;;;10.00;99.90;;;;;;5111280;28;20051;-74
2023/04/07 11:21:06;;;;;;;12.65;2.58;;;10.00;99.90;;;;;;5092410;28;20379;-74
2023/04/07 11:23:40;;;;;;;13.43;2.38;;;10.00;99.90;;;;;;5098363;28;20099;-74
2023/04/07 11:26:07;;;;;;;10.65;2.42;;;10.10;99.90;;;;;;5090810;28;20020;-75
2023/04/07 11:28:33;;;;;;;18.42;2.28;;;10.10;99.90;;;;;;5090465;28;20521;-75
2023/04/07 11:30:59;;;;;;;14.50;2.38;;;10.10;99.90;;;;;;5098498;28;20043;-75
2023/04/07 11:33:26;;;;;;;13.25;2.28;;;10.20;99.90;;;;;;5109992;28;20053;-75
2023/04/07 11:35:54;;;;;;;14.18;2.65;;;10.20;99.90;;;;;;5072894;28;20062;-75
2023/04/07 11:38:22;;;;;;;16.00;2.40;;;10.20;99.90;;;;;;5104735;28;20032;-75
2023/04/07 11:40:47;;;;;;;18.15;2.25;;;10.20;99.90;;;;;;5098935;28;20039;-75
2023/04/07 11:43:21;;;;;;;8.23;1.80;;;10.20;99.90;;;;;;5096028;28;20020;-75
2023/04/07 11:46:06;;;;;;;10.32;2.67;;;10.30;99.90;;;;;;5090987;28;20028;-75
2023/04/07 11:48:33;;;;;;;10.00;2.05;;;10.30;99.90;;;;;;5109264;28;20567;-75
2023/04/07 11:51:00;;;;;;;23.15;2.40;;;10.40;99.90;;;;;;5099035;28;20152;-75
2023/04/07 11:53:33;;;;;;;14.85;2.30;;;10.40;99.90;;;;;;5091105;28;20076;-75
2023/04/07 11:56:01;;;;;;;11.60;2.05;;;10.40;99.90;;;;;;5091051;28;20139;-75
2023/04/07 11:58:26;;;;;;;12.88;2.50;;;10.50;99.90;;;;;;5104138;28;20308;-75
2023/04/07 12:01:03;;;;;;;11.75;2.45;;;10.60;99.90;;;;;;5090931;28;20028;-75
2023/04/07 12:03:29;;;;;;;9.80;2.00;;;10.60;99.90;;;;;;5104982;28;20031;-75
2023/04/07 12:05:55;;;;;;;9.95;2.15;;;10.60;99.90;;;;;;5101949;28;20024;-75
2023/04/07 12:08:20;;;;;;;11.40;1.75;;;10.60;99.90;;;;;;5097999;28;20081;-75
2023/04/07 12:10:47;;;;;;;8.70;1.75;;;10.60;99.90;;;;;;5109818;28;20474;-74
2023/04/07 12:13:13;;;;;;;10.38;1.90;;;10.60;99.90;;;;;;5110497;28;20116;-75
2023/04/07 12:15:38;;;;;;;11.05;1.80;;;10.60;99.90;;;;;;5110025;28;20034;-75
2023/04/07 12:18:04;;;;;;;11.20;1.73;;;10.60;99.90;;;;;;5102712;28;20383;-75
2023/04/07 12:20:30;;;;;;;8.75;1.83;;;10.70;99.90;;;;;;5104811;28;20031;-75
2023/04/07 12:22:57;;;;;;;9.80;2.03;;;10.70;99.90;;;;;;5109694;28;20023;-75
2023/04/07 12:25:23;;;;;;;9.48;1.80;;;10.70;99.90;;;;;;5109338;28;20517;-74
2023/04/07 12:27:48;;;;;;;11.98;1.73;;;10.70;99.90;;;;;;5110008;28;20019;-74
2023/04/07 12:30:14;;;;;;;10.80;1.90;;;10.60;99.90;;;;;;5109201;28;20016;-74
2023/04/07 12:32:40;;;;;;;12.25;1.80;;;10.60;99.90;;;;;;5109670;28;20094;-75
2023/04/07 12:35:05;;;;;;;13.18;2.33;;;10.70;99.90;;;;;;5108164;28;20024;-75
2023/04/07 12:37:31;;;;;;;14.55;2.08;;;10.70;99.90;;;;;;5109151;28;20046;-75
2023/04/07 12:39:57;;;;;;;18.40;2.50;;;10.80;99.90;;;;;;5109325;28;20312;-75
2023/04/07 12:42:23;;;;;;;11.95;1.98;;;10.80;99.90;;;;;;5110113;28;20012;-75
2023/04/07 12:44:49;;;;;;;15.98;2.10;;;10.80;99.90;;;;;;5108593;28;20115;-75
2023/04/07 12:47:14;;;;;;;10.32;1.80;;;10.80;99.90;;;;;;5109087;28;20056;-75